Time;durP1;ratioP1;P1;durP2;ratioP2;P2;SDS_P1;SDS_P2;PMS_P1;PMS_P2;Temp;Humidity;BMP_temperature;BMP_pressure;BME280_temperature;BME280_humidity;BME280_pressure;Samples;Min_cycle;Max_cycle;Signal;HPM_P1;HPM_P2
2021/09/22 00:00:43;;;;;;;7.10;4.95;;;;;;;24.58;39.29;95553.06;5086248;28;20734;-73
2021/09/22 00:03:08;;;;;;;6.18;4.70;;;;;;;24.59;39.29;95554.56;5086463;28;20031;-73
2021/09/22 00:05:34;;;;;;;5.55;4.97;;;;;;;24.52;38.71;95549.63;5086390;28;20044;-73
2021/09/22 00:07:59;;;;;;;7.97;5.28;;;;;;;24.56;39.15;95555.56;5068256;28;20417;-73
2021/09/22 00:10:25;;;;;;;6.05;4.93;;;;;;;24.57;39.04;95546.88;5086487;28;20031;-73
2021/09/22 00:12:51;;;;;;;6.28;4.90;;;;;;;24.55;39.02;95543.91;5086348;28;20406;-73
2021/09/22 00:15:18;;;;;;;6.93;5.32;;;;;;;24.56;39.04;95541.94;5086447;28;20032;-74
2021/09/22 00:17:43;;;;;;;6.93;5.00;;;;;;;24.56;38.95;95529.00;5085968;28;20061;-73
2021/09/22 00:20:10;;;;;;;6.45;5.30;;;;;;;24.55;39.11;95532.25;5086581;28;20020;-73
2021/09/22 00:22:35;;;;;;;6.30;5.30;;;;;;;24.54;38.61;95547.13;5085958;28;20028;-74
2021/09/22 00:25:01;;;;;;;6.93;5.18;;;;;;;24.52;38.35;95541.44;5067355;28;20547;-72
2021/09/22 00:27:26;;;;;;;6.50;4.85;;;;;;;24.53;38.44;95546.41;5067187;28;20031;-74
2021/09/22 00:29:52;;;;;;;6.45;5.25;;;;;;;24.52;38.33;95538.72;5085705;28;20020;-72
2021/09/22 00:32:17;;;;;;;6.45;5.10;;;;;;;24.52;38.95;95533.25;5085464;28;20081;-74
2021/09/22 00:34:42;;;;;;;7.03;4.65;;;;;;;24.51;38.68;95531.75;5086229;28;20036;-74
2021/09/22 00:37:08;;;;;;;6.80;4.80;;;;;;;24.51;38.72;95526.28;5085965;28;20028;-72
2021/09/22 00:39:36;;;;;;;8.00;5.72;;;;;;;24.49;38.63;95528.78;5085840;28;20027;-72
2021/09/22 00:42:03;;;;;;;7.38;5.40;;;;;;;24.48;38.74;95527.31;5085848;28;20041;-73
2021/09/22 00:44:28;;;;;;;6.25;5.05;;;;;;;24.50;38.98;95530.28;5086186;28;20115;-73
2021/09/22 00:46:53;;;;;;;6.07;5.45;;;;;;;24.48;38.39;95527.31;5085634;28;20492;-73
2021/09/22 00:49:19;;;;;;;6.13;4.65;;;;;;;24.48;38.80;95524.56;5085464;28;20634;-74
2021/09/22 00:51:44;;;;;;;6.40;5.50;;;;;;;24.47;38.63;95525.84;5085690;28;20497;-72
2021/09/22 00:54:12;;;;;;;6.82;5.05;;;;;;;24.47;38.70;95525.84;5085980;28;20482;-72
2021/09/22 00:56:37;;;;;;;7.18;5.63;;;;;;;24.47;38.66;95525.84;5101646;28;20032;-72
2021/09/22 00:59:03;;;;;;;7.25;5.63;;;;;;;24.47;39.03;95520.38;5089868;28;20025;-73
2021/09/22 01:01:28;;;;;;;5.72;4.78;;;;;;;24.45;39.15;95523.59;5089651;28;20027;-74
2021/09/22 01:03:54;;;;;;;6.25;4.78;;;;;;;24.46;38.79;95513.41;5089283;28;20031;-73
2021/09/22 01:06:19;;;;;;;6.00;5.40;;;;;;;24.43;38.56;95519.88;5089614;28;20027;-74
2021/09/22 01:08:45;;;;;;;7.45;5.68;;;;;;;24.34;38.74;95484.69;5089393;28;20028;-73
2021/09/22 01:11:10;;;;;;;6.35;4.90;;;;;;;24.41;38.73;95511.47;5089645;28;20081;-74
2021/09/22 01:13:36;;;;;;;7.82;5.50;;;;;;;24.43;38.65;95509.69;5104751;28;20024;-73
2021/09/22 01:16:01;;;;;;;6.03;5.00;;;;;;;24.41;38.89;95489.63;5089640;28;20035;-72
2021/09/22 01:18:27;;;;;;;6.65;5.40;;;;;;;24.42;38.45;95491.09;5089366;28;20490;-74
2021/09/22 01:20:54;;;;;;;6.35;5.50;;;;;;;24.42;38.69;95488.34;5089163;28;20039;-72
2021/09/22 01:23:20;;;;;;;6.32;4.82;;;;;;;24.42;39.18;95480.16;5104728;28;20043;-72
2021/09/22 01:25:46;;;;;;;6.45;4.97;;;;;;;24.42;38.67;95480.16;5089213;28;20047;-72
2021/09/22 01:28:12;;;;;;;7.53;5.43;;;;;;;24.42;38.79;95485.63;5087364;28;20028;-73
2021/09/22 01:30:38;;;;;;;6.82;5.53;;;;;;;24.40;38.95;95488.13;5071040;28;20039;-72
2021/09/22 01:33:05;;;;;;;7.20;5.40;;;;;;;24.39;38.53;95486.63;5089033;28;20035;-74
2021/09/22 01:35:37;;;;;;;6.68;5.55;;;;;;;24.38;38.58;95479.72;5088838;28;20123;-71
2021/09/22 01:38:07;;;;;;;6.28;5.05;;;;;;;24.38;38.54;95479.72;5104050;28;20035;-74
2021/09/22 01:40:33;;;;;;;6.72;5.40;;;;;;;24.39;38.58;95481.19;5089078;28;20137;-74
2021/09/22 01:42:59;;;;;;;8.73;5.13;;;;;;;24.37;38.88;95473.50;5088817;28;20047;-74
2021/09/22 01:45:24;;;;;;;7.20;5.85;;;;;;;24.32;38.69;95465.31;5088929;28;20039;-73
2021/09/22 01:47:49;;;;;;;8.60;5.45;;;;;;;24.30;38.57;95462.34;5104445;28;20039;-73
2021/09/22 01:50:18;;;;;;;6.72;5.18;;;;;;;24.38;38.32;95479.72;5104478;28;20081;-72
2021/09/22 01:52:45;;;;;;;6.18;4.97;;;;;;;24.38;39.01;95474.25;5088498;28;20022;-74
2021/09/22 01:55:11;;;;;;;6.78;4.80;;;;;;;24.37;38.56;95478.22;5088747;28;20186;-72
2021/09/22 01:57:36;;;;;;;7.78;5.05;;;;;;;24.36;38.87;95493.88;5088557;28;20036;-72
2021/09/22 02:00:06;;;;;;;5.97;4.68;;;;;;;24.37;39.10;95475.50;5088376;28;20020;-74
2021/09/22 02:02:31;;;;;;;;;;;;;;;24.34;38.70;95468.31;5088777;28;20036;-74
2021/09/22 02:04:58;;;;;;;5.55;4.80;;;;;;;24.31;38.21;95474.75;5104126;28;19923;-72
2021/09/22 02:07:23;;;;;;;5.80;5.20;;;;;;;24.36;38.73;95476.72;5104256;28;20044;-73
2021/09/22 02:09:48;;;;;;;6.47;5.10;;;;;;;24.35;38.28;95476.00;5087993;28;20157;-73
2021/09/22 02:12:14;;;;;;;6.38;4.90;;;;;;;24.29;38.63;95471.78;5088237;28;20038;-73
2021/09/22 02:14:39;;;;;;;5.15;4.35;;;;;;;24.34;38.43;95468.31;5088450;28;20505;-73
2021/09/22 02:17:05;;;;;;;6.32;4.97;;;;;;;24.33;38.77;95466.81;5088604;28;20438;-72
2021/09/22 02:19:31;;;;;;;6.32;5.00;;;;;;;24.33;38.47;95460.63;5087734;28;20036;-73
2021/09/22 02:21:56;;;;;;;5.50;4.68;;;;;;;24.33;38.45;95455.91;5087814;28;20028;-75
2021/09/22 02:24:21;;;;;;;6.90;4.63;;;;;;;24.32;38.42;95459.88;5103708;28;20028;-73
2021/09/22 02:26:48;;;;;;;6.18;4.70;;;;;;;24.31;37.92;95447.44;5088138;28;20028;-74
2021/09/22 02:29:14;;;;;;;6.53;4.38;;;;;;;24.30;37.90;95456.88;5069959;28;20492;-72
2021/09/22 02:31:39;;;;;;;4.82;4.00;;;;;;;24.28;37.98;95453.91;5088193;28;20024;-73
2021/09/22 02:34:05;;;;;;;5.85;4.47;;;;;;;24.30;38.51;95462.34;5087723;28;20485;-72
2021/09/22 02:36:30;;;;;;;6.07;4.40;;;;;;;24.30;38.50;95472.53;5087791;28;20031;-72
2021/09/22 02:38:55;;;;;;;4.70;4.20;;;;;;;24.30;38.17;95473.25;5087473;28;20020;-73
2021/09/22 02:41:21;;;;;;;6.15;4.18;;;;;;;24.29;37.75;95481.94;5069871;28;20036;-73
2021/09/22 02:43:46;;;;;;;4.88;4.15;;;;;;;24.28;38.06;95492.13;5087545;28;20039;-73
2021/09/22 02:46:12;;;;;;;5.30;4.57;;;;;;;24.30;38.11;95472.53;5087593;28;20043;-73
2021/09/22 02:48:39;;;;;;;6.15;4.38;;;;;;;24.28;38.50;95464.84;5087520;28;20039;-74
2021/09/22 02:51:04;;;;;;;5.57;4.10;;;;;;;24.28;38.14;95453.19;5087654;28;20040;-72
2021/09/22 02:53:30;;;;;;;5.20;4.30;;;;;;;24.26;38.07;95464.59;5087650;28;20729;-72
2021/09/22 02:55:56;;;;;;;5.25;4.15;;;;;;;24.26;38.07;95456.41;5087805;28;20572;-72
2021/09/22 02:58:21;;;;;;;5.75;4.30;;;;;;;24.27;38.25;95462.59;5087049;28;20032;-72
2021/09/22 03:00:47;;;;;;;5.68;4.30;;;;;;;24.26;38.33;95456.41;5087452;28;20030;-72
2021/09/22 03:03:13;;;;;;;4.70;4.20;;;;;;;24.26;38.14;95456.41;5068931;28;20107;-73
2021/09/22 03:05:39;;;;;;;5.03;4.10;;;;;;;24.23;37.46;95457.44;5087482;28;20119;-72
2021/09/22 03:08:04;;;;;;;5.07;3.97;;;;;;;24.25;37.96;95454.94;5087202;28;20039;-72
2021/09/22 03:10:30;;;;;;;5.35;4.53;;;;;;;24.24;37.93;95447.97;5086942;28;20023;-72
2021/09/22 03:12:55;;;;;;;5.22;3.75;;;;;;;24.18;37.80;95450.00;5086906;28;20028;-72
2021/09/22 03:15:21;;;;;;;5.88;4.15;;;;;;;24.24;37.93;95453.44;5087327;28;20077;-72
2021/09/22 03:17:46;;;;;;;4.57;3.95;;;;;;;24.22;37.45;95439.56;5068844;28;20059;-72
2021/09/22 03:20:12;;;;;;;4.78;3.97;;;;;;;24.23;37.89;95451.97;5067894;28;20019;-74
2021/09/22 03:22:37;;;;;;;4.97;4.15;;;;;;;24.23;37.48;95451.97;5087072;28;20031;-73
2021/09/22 03:25:04;;;;;;;5.18;3.65;;;;;;;24.22;37.58;95450.47;5087047;28;20012;-72
2021/09/22 03:27:30;;;;;;;5.50;4.13;;;;;;;24.22;37.53;95466.84;5086614;28;20354;-72
2021/09/22 03:29:55;;;;;;;4.93;3.67;;;;;;;24.22;37.65;95455.94;5086672;28;20020;-73
2021/09/22 03:32:21;;;;;;;5.18;4.07;;;;;;;24.21;37.38;95448.97;5086648;28;20023;-73
2021/09/22 03:34:46;;;;;;;4.88;3.80;;;;;;;24.22;37.21;95450.47;5068756;28;20031;-72
2021/09/22 03:37:12;;;;;;;4.72;3.63;;;;;;;24.16;37.28;95446.31;5086772;28;20047;-74
2021/09/22 03:39:37;;;;;;;4.35;3.95;;;;;;;24.19;37.41;95451.47;5086776;28;20059;-74
2021/09/22 03:42:03;;;;;;;4.47;3.88;;;;;;;24.19;37.27;95462.41;5086604;28;20028;-72
2021/09/22 03:44:28;;;;;;;4.05;3.47;;;;;;;24.18;37.28;95444.53;5086887;28;20043;-73
2021/09/22 03:46:54;;;;;;;5.80;4.35;;;;;;;24.18;37.42;95441.81;5086435;28;20016;-73
2021/09/22 03:49:19;;;;;;;4.32;3.65;;;;;;;24.19;37.10;95440.56;5086739;28;20044;-73
2021/09/22 03:51:45;;;;;;;5.03;3.88;;;;;;;24.18;37.46;95450.00;5086202;28;20084;-73
2021/09/22 03:54:10;;;;;;;4.70;3.80;;;;;;;24.17;37.54;95448.53;5086397;28;20023;-73
2021/09/22 03:56:35;;;;;;;5.55;4.30;;;;;;;24.10;37.29;95427.22;5086709;28;20020;-73
2021/09/22 03:59:01;;;;;;;4.93;3.50;;;;;;;24.18;37.49;95444.53;5086580;28;20027;-74
2021/09/22 04:01:27;;;;;;;5.47;3.78;;;;;;;24.18;37.56;95428.16;5086196;28;20016;-73
2021/09/22 04:03:52;;;;;;;4.18;3.70;;;;;;;24.11;37.43;95423.25;5085997;28;20035;-74
2021/09/22 04:06:18;;;;;;;4.18;3.60;;;;;;;24.19;37.31;95424.19;5102332;28;20032;-73
2021/09/22 04:08:43;;;;;;;5.25;3.67;;;;;;;24.17;37.32;95418.50;5086474;28;20047;-74
2021/09/22 04:11:09;;;;;;;5.60;3.65;;;;;;;24.16;37.40;95419.75;5086500;28;20028;-72
2021/09/22 04:13:34;;;;;;;4.68;3.70;;;;;;;24.16;37.88;95430.66;5068157;28;20444;-74
2021/09/22 04:15:59;;;;;;;4.70;3.47;;;;;;;24.17;37.45;95437.59;5086399;28;20484;-73
2021/09/22 04:18:25;;;;;;;4.40;3.40;;;;;;;24.15;37.70;95434.63;5086234;28;20419;-72
2021/09/22 04:20:51;;;;;;;4.53;3.60;;;;;;;24.15;37.61;95422.97;5085800;28;20489;-72
2021/09/22 04:23:16;;;;;;;4.93;3.55;;;;;;;24.14;37.45;95416.78;5086221;28;20477;-74
2021/09/22 04:25:41;;;;;;;5.13;3.55;;;;;;;24.14;37.47;95416.78;5085708;28;20088;-73
2021/09/22 04:28:07;;;;;;;5.10;3.45;;;;;;;24.14;37.40;95419.50;5086315;28;20564;-74
2021/09/22 04:30:32;;;;;;;3.72;3.17;;;;;;;24.14;37.55;95422.25;5085887;28;20690;-74
2021/09/22 04:32:58;;;;;;;4.45;3.20;;;;;;;24.15;37.08;95407.34;5089903;28;20088;-74
2021/09/22 04:35:23;;;;;;;4.05;3.40;;;;;;;24.15;37.06;95412.78;5090220;28;20549;-74
2021/09/22 04:37:49;;;;;;;5.22;3.45;;;;;;;24.16;37.42;95408.81;5089940;28;20499;-74
2021/09/22 04:40:19;;;;;;;3.95;3.25;;;;;;;24.16;37.55;95403.38;5089659;28;20027;-74
2021/09/22 04:42:44;;;;;;;3.95;3.50;;;;;;;24.16;36.97;95392.44;5089064;28;20047;-72
2021/09/22 04:45:10;;;;;;;4.40;3.47;;;;;;;24.14;37.39;95389.50;5090537;28;20398;-73
2021/09/22 04:47:36;;;;;;;4.72;3.65;;;;;;;24.10;37.44;95388.28;5090217;28;20431;-72
2021/09/22 04:50:02;;;;;;;5.00;3.60;;;;;;;24.14;37.44;95384.03;5105315;28;20112;-72
2021/09/22 04:52:27;;;;;;;4.25;3.13;;;;;;;24.15;37.38;95380.03;5088845;28;20035;-70
2021/09/22 04:54:53;;;;;;;4.18;3.38;;;;;;;24.13;37.58;95382.56;5079069;28;20047;-74
2021/09/22 04:57:18;;;;;;;4.70;3.58;;;;;;;24.17;37.52;95393.94;5069400;28;20061;-72
2021/09/22 04:59:44;;;;;;;4.97;3.60;;;;;;;24.19;37.24;95396.16;5069603;28;20020;-72
2021/09/22 05:02:09;;;;;;;3.65;3.20;;;;;;;24.16;37.46;95392.44;5080313;28;20036;-74
2021/09/22 05:04:35;;;;;;;4.53;3.85;;;;;;;24.20;37.68;95398.41;5103145;28;20043;-73
2021/09/22 05:07:00;;;;;;;4.75;3.63;;;;;;;24.20;37.85;95392.94;5083403;28;20032;-73
2021/09/22 05:09:26;;;;;;;4.03;3.38;;;;;;;24.21;37.50;95388.94;5086263;28;20129;-74
2021/09/22 05:11:52;;;;;;;4.13;3.35;;;;;;;24.23;38.08;95397.38;5086254;28;20035;-74
2021/09/22 05:14:17;;;;;;;4.85;3.58;;;;;;;24.22;37.92;95389.69;5085521;28;20463;-74
2021/09/22 05:16:43;;;;;;;4.85;3.20;;;;;;;24.18;37.79;95381.75;5068656;28;20040;-74
2021/09/22 05:19:08;;;;;;;4.35;3.42;;;;;;;24.23;37.98;95397.38;5101637;28;20504;-75
2021/09/22 05:21:34;;;;;;;4.15;3.30;;;;;;;24.24;38.24;95387.94;5083530;28;20028;-76
2021/09/22 05:23:59;;;;;;;5.32;3.40;;;;;;;24.26;38.10;95401.84;5084044;28;20485;-76
2021/09/22 05:26:24;;;;;;;4.28;3.38;;;;;;;24.28;38.44;95382.97;5081721;28;20031;-82
2021/09/22 05:28:50;;;;;;;4.47;3.13;;;;;;;24.30;38.96;95385.91;5088167;28;20020;-75
2021/09/22 05:31:15;;;;;;;1329.85;937.28;;;;;;;24.47;39.51;95395.50;5087325;28;20043;-80
2021/09/22 05:33:41;;;;;;;1074.68;858.33;;;;;;;24.56;39.72;95397.94;5083299;28;20020;-77
2021/09/22 05:36:06;;;;;;;1642.50;999.90;;;;;;;24.63;39.76;95391.16;5074598;28;20512;-75
2021/09/22 05:38:32;;;;;;;1575.40;999.90;;;;;;;24.65;40.62;95399.59;5085639;28;20023;-76
2021/09/22 05:40:57;;;;;;;1264.93;994.55;;;;;;;24.68;40.90;95396.59;5085485;28;20043;-75
2021/09/22 05:43:22;;;;;;;1260.95;987.55;;;;;;;24.69;42.49;95394.59;5098617;28;20031;-75
2021/09/22 05:45:48;;;;;;;1393.30;999.90;;;;;;;24.67;39.30;95397.09;5085882;28;20034;-76
2021/09/22 05:48:13;;;;;;;1383.32;999.90;;;;;;;24.68;39.12;95398.56;5084456;28;20028;-77
2021/09/22 05:50:39;;;;;;;1157.10;933.15;;;;;;;24.74;38.42;95391.84;5063012;28;20020;-79
2021/09/22 05:53:04;;;;;;;1207.70;965.55;;;;;;;24.79;38.70;95403.97;5087780;28;20387;-78
2021/09/22 05:55:30;;;;;;;1569.68;999.90;;;;;;;24.82;38.87;95392.03;5064216;28;20024;-78
2021/09/22 05:57:55;;;;;;;1024.82;845.75;;;;;;;24.89;37.93;95392.94;5085687;28;20039;-76
2021/09/22 06:00:21;;;;;;;1119.93;912.15;;;;;;;24.96;37.91;95395.13;5084738;28;20016;-75
2021/09/22 06:02:46;;;;;;;969.88;796.38;;;;;;;25.06;37.78;95390.81;5079939;28;20020;-77
2021/09/22 06:05:12;;;;;;;1278.97;991.95;;;;;;;25.13;36.99;95401.19;5083741;28;20040;-76
2021/09/22 06:07:37;;;;;;;1128.82;915.00;;;;;;;25.15;37.35;95393.22;5086391;28;20024;-75
2021/09/22 06:10:04;;;;;;;1462.20;999.90;;;;;;;25.24;36.57;95394.88;5085293;28;20024;-76
2021/09/22 06:12:29;;;;;;;1160.00;931.28;;;;;;;25.31;36.73;95384.13;5085050;28;20008;-74
2021/09/22 06:14:55;;;;;;;1340.15;999.90;;;;;;;25.37;35.86;95382.06;5085459;28;20019;-75
2021/09/22 06:17:20;;;;;;;1595.13;999.90;;;;;;;25.43;36.13;95391.69;5086979;28;20042;-78
2021/09/22 06:19:46;;;;;;;1695.15;999.90;;;;;;;25.48;35.98;95381.94;5086592;28;20017;-78
2021/09/22 06:22:11;;;;;;;1663.00;999.90;;;;;;;25.58;35.40;95369.41;5088452;28;20086;-77
2021/09/22 06:24:37;;;;;;;1555.90;999.90;;;;;;;25.62;35.31;95372.56;5080539;28;20012;-79
2021/09/22 06:27:03;;;;;;;1509.90;999.90;;;;;;;25.69;35.15;95374.78;5086084;28;20027;-79
2021/09/22 06:29:29;;;;;;;1691.63;999.90;;;;;;;25.72;34.95;95384.69;5084250;28;20444;-81
2021/09/22 06:31:55;;;;;;;1339.13;999.90;;;;;;;25.76;34.98;95363.97;5084508;28;20406;-78
2021/09/22 06:34:20;;;;;;;1365.25;999.90;;;;;;;25.81;34.99;95377.59;5098312;28;20082;-79
2021/09/22 06:36:46;;;;;;;1445.47;999.90;;;;;;;25.90;34.48;95369.03;5081789;28;20025;-79
2021/09/22 06:39:11;;;;;;;1096.97;871.38;;;;;;;25.98;34.58;95386.34;5086361;28;20020;-78
2021/09/22 06:41:37;;;;;;;1021.00;839.22;;;;;;;25.98;33.98;95391.81;5066791;28;20729;-75
2021/09/22 06:44:03;;;;;;;923.40;723.65;;;;;;;26.03;34.40;95382.78;5083295;28;20487;-77
2021/09/22 06:46:28;;;;;;;1159.00;928.13;;;;;;;26.15;34.34;95383.38;5080499;28;20058;-80
2021/09/22 06:48:53;;;;;;;1289.80;970.17;;;;;;;26.20;34.22;95379.81;5064178;28;20025;-78
2021/09/22 06:51:19;;;;;;;678.05;444.55;;;;;;;26.18;34.38;95366.66;5078143;28;20027;-79
2021/09/22 06:53:45;;;;;;;674.90;440.05;;;;;;;26.22;34.05;95378.06;5083198;28;20035;-76
2021/09/22 06:56:11;;;;;;;744.85;527.38;;;;;;;26.24;34.25;95380.25;5083738;28;20020;-74
2021/09/22 06:58:36;;;;;;;799.95;599.67;;;;;;;26.27;33.90;95390.91;5066689;28;20119;-76
2021/09/22 07:01:02;;;;;;;730.83;514.33;;;;;;;26.32;33.74;95392.84;5068111;28;20028;-74
2021/09/22 07:03:27;;;;;;;330.73;215.27;;;;;;;26.31;33.69;95385.91;5068346;28;20058;-76
2021/09/22 07:05:53;;;;;;;131.85;90.72;;;;;;;26.38;33.71;95391.53;5068182;28;20441;-83
2021/09/22 07:08:19;;;;;;;165.85;106.90;;;;;;;26.36;33.73;95398.78;5072156;28;20111;-78
2021/09/22 07:10:45;;;;;;;92.53;75.47;;;;;;;26.40;33.43;95399.22;5085045;28;20406;-77
2021/09/22 07:13:10;;;;;;;52.60;47.63;;;;;;;26.45;34.42;95395.66;5078316;28;20027;-76
2021/09/22 07:15:36;;;;;;;57.95;52.45;;;;;;;26.44;33.74;95410.59;5099621;28;20028;-78
2021/09/22 07:18:01;;;;;;;38.40;35.30;;;;;;;26.48;33.43;95389.16;5064499;28;20028;-75
2021/09/22 07:20:27;;;;;;;100.10;78.07;;;;;;;26.48;33.66;95394.63;5078339;28;20020;-78
2021/09/22 07:22:52;;;;;;;129.95;90.60;;;;;;;26.44;34.06;95399.66;5082062;28;20028;-77
2021/09/22 07:25:18;;;;;;;311.35;172.93;;;;;;;26.47;33.59;95393.13;5065183;28;20032;-78
2021/09/22 07:27:43;;;;;;;84.65;67.93;;;;;;;26.47;33.65;95398.63;5073465;28;20020;-78
2021/09/22 07:30:09;;;;;;;61.83;55.33;;;;;;;26.57;33.35;95391.50;5066307;28;20565;-73
2021/09/22 07:32:35;;;;;;;30.90;27.95;;;;;;;26.55;33.44;95400.25;5067470;28;20115;-80
2021/09/22 07:35:00;;;;;;;18.10;16.63;;;;;;;26.60;33.55;95391.19;5074852;28;20452;-78
2021/09/22 07:37:28;;;;;;;7.05;6.15;;;;;;;26.64;33.13;95396.38;5048980;28;20024;-77
2021/09/22 07:39:53;;;;;;;6.47;2.90;;;;;;;26.64;33.13;95388.16;5078143;28;20021;-77
2021/09/22 07:42:23;;;;;;;8.15;7.45;;;;;;;26.61;33.04;95391.94;5070186;28;20043;-77
2021/09/22 07:44:53;;;;;;;6.90;5.60;;;;;;;26.59;33.32;95388.97;5071362;28;20039;-75
2021/09/22 07:47:19;;;;;;;5.57;3.05;;;;;;;26.62;32.85;95387.94;5072162;28;20286;-75
2021/09/22 07:49:44;;;;;;;4.68;2.67;;;;;;;26.73;32.72;95382.28;5068269;28;20513;-75
2021/09/22 07:52:10;;;;;;;5.35;2.60;;;;;;;26.75;32.84;95379.75;5083796;28;20028;-75
2021/09/22 07:54:37;;;;;;;5.35;2.67;;;;;;;26.75;33.07;95388.72;5068062;28;20104;-81
2021/09/22 07:57:02;;;;;;;29.45;23.05;;;;;;;26.76;33.42;95388.19;5084540;28;20623;-76
2021/09/22 07:59:29;;;;;;;6.57;5.13;;;;;;;26.76;33.07;95386.72;5069377;28;20020;-80
2021/09/22 08:01:55;;;;;;;11.15;10.18;;;;;;;26.75;33.67;95382.50;5068504;28;20024;-78
2021/09/22 08:04:23;;;;;;;56.78;48.50;;;;;;;26.71;33.26;95390.28;5069826;28;20107;-76
2021/09/22 08:06:48;;;;;;;20.90;18.88;;;;;;;26.62;33.23;95398.88;5071391;28;20115;-77
2021/09/22 08:09:14;;;;;;;67.70;59.10;;;;;;;26.67;33.07;95384.38;5097453;28;20028;-77
2021/09/22 08:11:39;;;;;;;5.40;4.88;;;;;;;26.73;33.13;95387.78;5098270;28;20038;-78
2021/09/22 08:14:05;;;;;;;3.75;2.80;;;;;;;26.72;33.03;95375.31;5110195;28;20165;-78
2021/09/22 08:16:30;;;;;;;4.28;2.67;;;;;;;26.78;33.60;95380.19;5099794;28;20074;-80
2021/09/22 08:18:56;;;;;;;4.80;2.72;;;;;;;26.81;32.79;95373.66;5105083;28;20024;-81
2021/09/22 08:21:21;;;;;;;4.97;2.55;;;;;;;26.80;32.87;95355.75;5087396;28;20032;-83
2021/09/22 08:23:47;;;;;;;4.30;2.63;;;;;;;26.84;32.76;95361.63;5083701;28;20028;-82
2021/09/22 08:26:12;;;;;;;4.68;2.78;;;;;;;26.90;32.59;95365.06;5082133;28;20410;-81
2021/09/22 08:28:37;;;;;;;3.63;2.70;;;;;;;26.86;32.58;95361.88;5099943;28;20042;-80
2021/09/22 08:31:03;;;;;;;5.30;2.78;;;;;;;26.84;32.76;95356.16;5085712;28;20020;-78
2021/09/22 08:33:28;;;;;;;5.00;2.67;;;;;;;26.85;32.60;95356.91;5074477;28;20012;-78
2021/09/22 08:35:54;;;;;;;4.57;2.95;;;;;;;26.90;32.48;95356.84;5073590;28;20024;-78
2021/09/22 08:38:19;;;;;;;6.15;2.88;;;;;;;26.93;32.40;95355.78;5075638;28;20024;-78
2021/09/22 08:40:45;;;;;;;4.07;2.78;;;;;;;26.91;32.30;95344.63;5076969;28;20028;-77
2021/09/22 08:43:13;;;;;;;3.70;2.90;;;;;;;26.95;31.83;95350.53;5064942;28;20043;-77
2021/09/22 08:45:39;;;;;;;3.90;3.00;;;;;;;26.98;31.93;95354.97;5067977;28;20103;-79
2021/09/22 08:48:04;;;;;;;4.10;2.90;;;;;;;26.97;32.07;95348.00;5067685;28;20047;-77
2021/09/22 08:50:30;;;;;;;4.47;2.83;;;;;;;26.98;31.86;95354.97;5082846;28;20016;-77
2021/09/22 08:52:55;;;;;;;4.53;3.00;;;;;;;26.95;31.86;95350.53;5081279;28;20520;-77
2021/09/22 08:55:21;;;;;;;5.10;2.70;;;;;;;26.93;31.76;95342.09;5048921;28;20058;-78
2021/09/22 08:57:46;;;;;;;6.93;3.22;;;;;;;26.95;31.78;95350.53;5066823;28;20037;-76
2021/09/22 09:00:12;;;;;;;5.25;3.47;;;;;;;26.87;31.95;95338.66;5061197;28;20495;-78
2021/09/22 09:02:39;;;;;;;4.30;3.05;;;;;;;26.97;32.08;95331.56;5076756;28;20074;-77
2021/09/22 09:05:18;;;;;;;4.57;2.88;;;;;;;27.00;31.66;95338.72;5066288;28;20076;-79
2021/09/22 09:07:58;;;;;;;5.15;3.00;;;;;;;26.86;31.78;95325.50;5066725;28;20028;-80
2021/09/22 09:10:26;;;;;;;5.13;2.90;;;;;;;26.93;32.25;95327.66;5091628;28;20059;-77
2021/09/22 09:13:08;;;;;;;3.80;2.95;;;;;;;26.94;31.93;95332.59;5068819;28;20028;-79
2021/09/22 09:15:38;;;;;;;4.10;2.85;;;;;;;26.96;32.27;95329.34;5086751;28;20077;-84
2021/09/22 09:18:21;;;;;;;4.25;2.53;;;;;;;27.03;31.87;95334.94;5055413;28;20020;-79
2021/09/22 09:20:48;;;;;;;4.03;2.60;;;;;;;27.07;31.70;95334.63;5062377;28;20016;-77
2021/09/22 09:23:18;;;;;;;4.35;2.65;;;;;;;27.04;31.71;95325.47;5070528;28;20029;-79
2021/09/22 09:26:02;;;;;;;5.22;2.70;;;;;;;26.99;31.78;95318.06;5070101;28;20563;-83
2021/09/22 09:28:38;;;;;;;4.15;2.67;;;;;;;27.10;32.09;95317.88;5068727;28;20024;-75
2021/09/22 09:31:05;;;;;;;4.30;2.53;;;;;;;27.03;32.13;95318.50;5093842;28;20119;-75
2021/09/22 09:33:39;;;;;;;5.13;2.85;;;;;;;27.05;32.41;95315.22;5069171;28;20577;-81
2021/09/22 09:36:23;;;;;;;3.67;2.72;;;;;;;27.07;31.61;95313.44;5070415;28;20050;-81
2021/09/22 09:39:12;;;;;;;4.85;2.60;;;;;;;27.00;31.63;95314.06;5075089;28;20028;-80
2021/09/22 09:41:39;;;;;;;4.47;2.80;;;;;;;27.09;31.61;95327.34;5066876;28;20048;-80
2021/09/22 09:44:07;;;;;;;4.82;2.60;;;;;;;27.14;31.34;95307.31;5083528;28;20572;-81
2021/09/22 09:46:32;;;;;;;5.45;2.80;;;;;;;27.13;31.60;95305.84;5079752;28;20020;-82
2021/09/22 09:49:00;;;;;;;3.55;2.65;;;;;;;27.14;31.11;95312.78;5084091;28;20552;-88
2021/09/22 09:51:35;;;;;;;4.35;2.50;;;;;;;27.06;31.36;95322.91;5101608;28;20027;-81
2021/09/22 09:54:08;;;;;;;5.30;2.85;;;;;;;27.03;31.36;95306.78;5037496;28;20516;-81
2021/09/22 09:56:34;;;;;;;4.45;2.50;;;;;;;27.08;31.43;95320.38;5078713;28;20021;-79
2021/09/22 09:59:00;;;;;;;4.45;2.80;;;;;;;27.12;31.00;95309.13;5073337;28;20047;-79
2021/09/22 10:01:39;;;;;;;4.97;2.58;;;;;;;27.09;30.79;95299.94;5084459;28;20040;-80
2021/09/22 10:04:05;;;;;;;5.07;2.38;;;;;;;27.08;31.26;95292.97;5077636;28;20024;-80
2021/09/22 10:06:31;;;;;;;5.20;2.67;;;;;;;27.05;31.40;95315.94;5055687;28;20039;-78
2021/09/22 10:08:56;;;;;;;3.78;2.42;;;;;;;27.04;31.35;95309.00;5086326;28;20033;-78
2021/09/22 10:11:22;;;;;;;4.43;2.60;;;;;;;27.02;31.51;95306.03;5067684;28;20051;-78
2021/09/22 10:13:48;;;;;;;4.05;2.20;;;;;;;26.98;30.76;95311.13;5084101;28;20025;-78
2021/09/22 10:16:15;;;;;;;4.88;3.17;;;;;;;26.81;30.11;95318.09;5050691;28;20108;-77
2021/09/22 10:18:41;;;;;;;5.97;3.25;;;;;;;26.69;29.83;95305.13;5087114;28;20518;-75
2021/09/22 10:21:08;;;;;;;8.02;3.40;;;;;;;26.57;29.88;95303.84;5084804;28;20020;-75
2021/09/22 10:23:33;;;;;;;9.63;3.58;;;;;;;26.51;29.53;95311.41;5086101;28;20025;-75
2021/09/22 10:25:59;;;;;;;6.25;3.38;;;;;;;26.39;29.71;95310.84;5053039;28;20032;-78
2021/09/22 10:28:41;;;;;;;7.70;3.35;;;;;;;26.34;30.55;95302.72;5059083;28;20021;-76
2021/09/22 10:31:22;;;;;;;6.72;3.20;;;;;;;26.37;29.80;95301.69;5062526;28;20036;-78
2021/09/22 10:33:48;;;;;;;5.82;3.35;;;;;;;26.31;29.51;95298.28;5071105;28;20071;-79
2021/09/22 10:36:15;;;;;;;7.43;3.38;;;;;;;26.24;29.32;95309.81;5069199;28;20486;-78
2021/09/22 10:38:46;;;;;;;5.10;3.10;;;;;;;26.22;29.82;95298.66;5068810;28;20024;-79
2021/09/22 10:41:23;;;;;;;6.38;3.33;;;;;;;26.17;29.59;95287.78;5096090;28;20040;-77
2021/09/22 10:43:48;;;;;;;6.97;3.40;;;;;;;26.09;29.31;95282.16;5069620;28;20044;-76
2021/09/22 10:46:16;;;;;;;5.18;3.75;;;;;;;26.02;29.31;95277.31;5068754;28;20036;-78
2021/09/22 10:48:54;;;;;;;5.43;3.58;;;;;;;26.03;29.29;95283.50;5084582;28;20405;-79
2021/09/22 10:51:31;;;;;;;6.05;3.58;;;;;;;25.91;29.25;95271.97;5083362;28;20016;-79
2021/09/22 10:54:18;;;;;;;5.25;3.60;;;;;;;25.84;29.40;95271.84;5068041;28;20494;-76
2021/09/22 10:57:00;;;;;;;5.38;3.50;;;;;;;25.85;29.11;95279.53;5068043;28;20036;-78
2021/09/22 10:59:38;;;;;;;9.13;3.30;;;;;;;25.81;29.03;95279.09;5075323;28;20665;-78
2021/09/22 11:02:06;;;;;;;7.80;4.00;;;;;;;25.76;28.99;95272.97;5087534;28;20030;-77
2021/09/22 11:04:54;;;;;;;5.30;3.72;;;;;;;25.61;29.24;95272.66;5069970;28;20091;-75
2021/09/22 11:07:20;;;;;;;4.32;3.13;;;;;;;25.63;29.99;95276.31;5086226;28;20107;-78
2021/09/22 11:09:45;;;;;;;5.82;3.17;;;;;;;25.78;29.41;95289.59;5093131;28;20024;-77
2021/09/22 11:12:12;;;;;;;6.30;3.42;;;;;;;25.77;29.36;95277.16;5077207;28;20113;-77
2021/09/22 11:14:42;;;;;;;6.10;3.05;;;;;;;25.74;29.34;95278.19;5070553;28;20024;-75
2021/09/22 11:17:14;;;;;;;5.15;3.40;;;;;;;25.75;29.56;95279.69;5077585;28;20070;-76
2021/09/22 11:19:40;;;;;;;6.00;3.40;;;;;;;25.61;29.47;95280.84;5077171;28;20023;-76
2021/09/22 11:22:14;;;;;;;4.57;3.30;;;;;;;25.72;29.91;95280.72;5083948;28;20035;-75
2021/09/22 11:24:41;;;;;;;4.75;3.20;;;;;;;25.62;29.48;95276.84;5075307;28;20109;-77